createdAt,value
2019-04-25T00:05:21.171Z,12.80
2019-04-25T00:08:02.114Z,12.80
2019-04-25T00:10:43.808Z,12.70
2019-04-25T00:13:24.759Z,12.60
2019-04-25T00:16:05.451Z,12.60
2019-04-25T00:18:46.330Z,12.70
2019-04-25T00:21:46.553Z,12.70
2019-04-25T00:24:28.719Z,12.70
2019-04-25T00:27:11.720Z,12.60
2019-04-25T00:29:52.947Z,12.70
2019-04-25T00:32:34.189Z,12.70
2019-04-25T00:35:14.891Z,12.80
2019-04-25T00:37:56.148Z,12.80
2019-04-25T00:40:36.940Z,12.80
2019-04-25T00:43:18.028Z,12.80
2019-04-25T00:45:58.904Z,12.80
2019-04-25T00:48:39.643Z,12.80
2019-04-25T00:51:21.744Z,12.80
2019-04-25T00:54:02.500Z,12.80
2019-04-25T00:56:45.816Z,12.80
2019-04-25T00:59:27.286Z,12.80
2019-04-25T01:02:12.585Z,12.70
2019-04-25T01:04:54.195Z,12.60
2019-04-25T01:07:35.061Z,12.50
2019-04-25T01:10:15.902Z,12.40
2019-04-25T01:12:56.203Z,12.40
2019-04-25T01:15:37.047Z,12.40
2019-04-25T01:18:18.003Z,12.40
2019-04-25T01:20:58.573Z,12.30
2019-04-25T01:23:39.094Z,12.30
2019-04-25T01:26:19.994Z,12.30
2019-04-25T01:29:00.682Z,12.30
2019-04-25T01:31:41.175Z,12.30
2019-04-25T01:34:23.832Z,12.20
2019-04-25T01:37:07.875Z,12.10
2019-04-25T01:39:55.315Z,12.10
2019-04-25T01:42:55.865Z,12.00
2019-04-25T01:45:37.183Z,11.80
2019-04-25T01:48:17.604Z,11.60
2019-04-25T01:54:04.094Z,11.40
2019-04-25T01:56:45.218Z,11.30
2019-04-25T01:59:25.739Z,11.30
2019-04-25T02:02:07.951Z,11.20
2019-04-25T02:04:49.068Z,11.30
2019-04-25T02:07:30.051Z,11.30
2019-04-25T02:10:10.799Z,11.40
2019-04-25T02:12:55.217Z,11.50
2019-04-25T02:15:35.759Z,11.50
2019-04-25T02:18:16.394Z,11.50
2019-04-25T02:21:00.022Z,11.50
2019-04-25T02:23:38.355Z,11.50
2019-04-25T02:26:26.221Z,11.50
2019-04-25T02:29:14.250Z,11.50
2019-04-25T02:32:06.005Z,11.50
2019-04-25T02:34:51.731Z,11.50
2019-04-25T02:37:34.965Z,11.40
2019-04-25T02:40:15.441Z,11.30
2019-04-25T02:42:58.565Z,11.20
2019-04-25T02:45:40.783Z,11.10
2019-04-25T02:48:40.903Z,10.90
2019-04-25T02:51:40.432Z,10.70
2019-04-25T02:54:21.717Z,10.60
2019-04-25T02:57:05.189Z,10.60
2019-04-25T02:59:45.235Z,10.60
2019-04-25T03:05:25.746Z,10.70
2019-04-25T03:08:08.968Z,10.60
2019-04-25T03:10:49.592Z,10.50
2019-04-25T03:13:30.542Z,10.40
2019-04-25T03:16:11.326Z,10.40
2019-04-25T03:18:54.374Z,10.40
2019-04-25T03:21:36.700Z,10.40
2019-04-25T03:24:17.839Z,10.40
2019-04-25T03:26:58.592Z,10.40
2019-04-25T03:29:40.084Z,10.40
2019-04-25T03:32:20.753Z,10.40
2019-04-25T03:35:03.810Z,10.40
2019-04-25T03:37:44.471Z,10.40
2019-04-25T03:40:25.231Z,10.40
2019-04-25T03:43:06.214Z,10.40
2019-04-25T03:45:47.455Z,10.40
2019-04-25T03:48:28.443Z,10.50
2019-04-25T03:51:08.944Z,10.50
2019-04-25T03:53:49.935Z,10.50
2019-04-25T03:56:30.359Z,10.50
2019-04-25T03:59:11.191Z,10.60
2019-04-25T04:01:51.679Z,10.60
2019-04-25T04:04:33.497Z,10.60
2019-04-25T04:07:15.860Z,10.50
2019-04-25T04:09:57.183Z,10.50
2019-04-25T04:12:38.015Z,10.40
2019-04-25T04:15:19.630Z,10.40
2019-04-25T04:20:59.031Z,10.30
2019-04-25T04:23:43.028Z,10.30
2019-04-25T04:26:23.719Z,10.20
2019-04-25T04:29:04.700Z,10.20
2019-04-25T04:31:45.148Z,10.20
2019-04-25T04:37:34.291Z,10.30
2019-04-25T04:40:17.229Z,10.30
2019-04-25T04:42:57.167Z,10.30
2019-04-25T04:45:37.798Z,10.20
2019-04-25T04:48:18.862Z,10.20
2019-04-25T04:51:00.035Z,10.20
2019-04-25T04:53:40.579Z,10.20
2019-04-25T04:56:21.061Z,10.20
2019-04-25T05:02:14.638Z,10.30
2019-04-25T05:04:58.869Z,10.40
2019-04-25T05:10:47.040Z,10.50
2019-04-25T05:13:27.432Z,10.60
2019-04-25T05:16:07.843Z,10.70
2019-04-25T05:18:48.333Z,10.70
2019-04-25T05:21:29.595Z,10.70
2019-04-25T05:24:10.408Z,10.80
2019-04-25T05:26:51.024Z,10.80
2019-04-25T05:29:31.720Z,10.90
2019-04-25T05:32:15.429Z,10.90
2019-04-25T05:34:55.651Z,11.00
2019-04-25T05:44:00.815Z,11.30
2019-04-25T05:46:41.159Z,11.40
2019-04-25T05:49:24.086Z,11.50
2019-04-25T05:52:04.991Z,11.60
2019-04-25T05:54:45.639Z,11.70
2019-04-25T05:57:26.616Z,11.80
2019-04-25T06:00:08.731Z,11.80
2019-04-25T06:02:49.311Z,11.90
2019-04-25T06:05:29.957Z,12.00
2019-04-25T06:11:31.439Z,12.10
2019-04-25T06:17:20.135Z,12.30
2019-04-25T06:20:05.992Z,12.40
2019-04-25T06:25:53.807Z,12.50
2019-04-25T06:28:34.974Z,12.60
2019-04-25T06:31:15.966Z,12.70
2019-04-25T06:33:56.628Z,12.70
2019-04-25T06:36:56.666Z,12.80
2019-04-25T06:39:37.794Z,12.90
2019-04-25T06:42:18.526Z,13.00
2019-04-25T06:48:24.671Z,13.10
2019-04-25T06:51:04.767Z,13.20
2019-04-25T06:57:04.841Z,13.40
2019-04-25T06:59:45.561Z,13.50
2019-04-25T07:02:14.159Z,13.50
2019-04-25T07:05:03.864Z,13.60
2019-04-25T07:07:53.382Z,13.70
2019-04-25T07:10:41.376Z,13.70
2019-04-25T07:16:18.585Z,13.90
2019-04-25T07:19:06.788Z,14.00
2019-04-25T07:21:54.978Z,14.00
2019-04-25T07:24:43.961Z,14.10
2019-04-25T07:27:53.327Z,14.20
2019-04-25T07:31:03.519Z,14.40
2019-04-25T07:36:53.527Z,14.60
2019-04-25T07:39:34.447Z,14.70
2019-04-25T07:42:16.583Z,14.80
2019-04-25T07:44:56.991Z,14.90
2019-04-25T07:47:37.786Z,15.00
2019-04-25T07:50:18.375Z,15.10
2019-04-25T07:52:59.220Z,15.10
2019-04-25T07:55:40.027Z,15.10
2019-04-25T07:58:20.523Z,15.30
2019-04-25T08:01:01.567Z,15.40
2019-04-25T08:03:43.856Z,15.60
2019-04-25T08:06:25.529Z,15.70
2019-04-25T08:09:06.411Z,15.80
2019-04-25T08:11:47.054Z,16.00
2019-04-25T08:14:33.895Z,16.00
2019-04-25T08:17:16.003Z,16.10
2019-04-25T08:26:24.871Z,16.50
2019-04-25T08:29:05.426Z,16.80
2019-04-25T08:31:46.111Z,17.00
2019-04-25T08:34:26.815Z,17.30
2019-04-25T08:37:17.441Z,17.40
2019-04-25T08:39:49.851Z,17.60
2019-04-25T08:42:31.457Z,17.70
2019-04-25T08:45:13.334Z,17.70
2019-04-25T08:47:54.339Z,17.90
2019-04-25T08:50:40.803Z,17.90
2019-04-25T08:53:23.803Z,17.90
2019-04-25T08:56:24.450Z,17.80
2019-04-25T08:59:34.057Z,17.70
2019-04-25T09:02:08.287Z,17.60
2019-04-25T09:07:56.071Z,17.60
2019-04-25T09:10:38.622Z,17.60
2019-04-25T09:13:19.394Z,17.70
2019-04-25T09:15:59.916Z,17.80
2019-04-25T09:18:40.676Z,17.80
2019-04-25T09:21:21.411Z,17.90
2019-04-25T09:24:03.321Z,18.00
2019-04-25T09:26:45.426Z,18.10
2019-04-25T09:29:26.083Z,18.40
2019-04-25T09:32:06.959Z,18.70
2019-04-25T09:34:48.462Z,18.80
2019-04-25T09:37:29.146Z,19.00
2019-04-25T09:40:16.802Z,19.20
2019-04-25T09:42:57.582Z,19.20
2019-04-25T09:45:39.684Z,19.30
2019-04-25T09:48:23.178Z,19.40
2019-04-25T09:51:23.618Z,19.40
2019-04-25T09:54:09.514Z,19.50
2019-04-25T09:59:45.155Z,19.60
2019-04-25T10:02:26.498Z,19.70
2019-04-25T10:05:07.290Z,19.80
2019-04-25T10:07:48.934Z,20.00
2019-04-25T10:10:29.379Z,19.90
2019-04-25T10:13:09.787Z,19.90
2019-04-25T10:15:50.438Z,19.90
2019-04-25T10:18:31.035Z,20.00
2019-04-25T10:21:14.283Z,20.10
2019-04-25T10:23:55.746Z,20.20
2019-04-25T10:29:57.165Z,20.40
2019-04-25T10:32:38.336Z,20.50
2019-04-25T10:35:18.679Z,20.70
2019-04-25T10:37:59.718Z,20.80
2019-04-25T10:40:40.592Z,20.90
2019-04-25T10:43:21.773Z,21.10
2019-04-25T10:46:05.257Z,21.30
2019-04-25T10:48:46.455Z,21.40
2019-04-25T10:51:27.307Z,21.50
2019-04-25T10:54:08.435Z,21.60
2019-04-25T10:56:49.035Z,21.90
2019-04-25T10:59:29.838Z,22.00
2019-04-25T11:02:11.377Z,21.80
2019-04-25T11:04:54.528Z,21.50
2019-04-25T11:07:35.608Z,21.30
2019-04-25T11:10:16.359Z,21.30
2019-04-25T11:12:56.899Z,21.40
2019-04-25T11:15:37.228Z,21.60
2019-04-25T11:18:17.911Z,21.70
2019-04-25T11:20:59.191Z,21.80
2019-04-25T11:23:40.515Z,21.90
2019-04-25T11:26:22.054Z,22.00
2019-04-25T11:29:02.410Z,22.10
2019-04-25T11:31:45.757Z,22.10
2019-04-25T11:34:26.460Z,22.20
2019-04-25T11:37:07.240Z,22.40
2019-04-25T11:40:06.915Z,22.50
2019-04-25T11:42:48.287Z,22.60
2019-04-25T11:45:29.107Z,22.80
2019-04-25T11:48:10.036Z,22.90
2019-04-25T11:54:10.039Z,23.10
2019-04-25T11:56:50.760Z,22.70
2019-04-25T11:59:31.163Z,22.40
2019-04-25T12:02:13.370Z,22.20
2019-04-25T12:04:55.278Z,22.20
2019-04-25T12:07:35.975Z,22.30
2019-04-25T12:10:17.266Z,22.40
2019-04-25T12:12:58.551Z,22.50
2019-04-25T12:15:39.595Z,22.80
2019-04-25T12:18:20.244Z,23.30
2019-04-25T12:21:00.679Z,23.90
2019-04-25T12:23:41.599Z,24.30
2019-04-25T12:26:22.219Z,24.60
2019-04-25T12:29:04.361Z,24.80
2019-04-25T12:31:34.185Z,25.00
2019-04-25T12:34:24.215Z,25.20
2019-04-25T12:37:06.720Z,25.40
2019-04-25T12:39:48.417Z,25.50
2019-04-25T12:42:29.463Z,25.50
2019-04-25T12:45:14.707Z,25.50
2019-04-25T12:47:59.245Z,25.50
2019-04-25T12:50:40.451Z,25.20
2019-04-25T12:53:21.383Z,25.00
2019-04-25T12:56:02.251Z,24.80
2019-04-25T12:58:43.567Z,24.70
2019-04-25T13:01:24.850Z,24.50
2019-04-25T13:04:06.259Z,24.40
2019-04-25T13:06:48.695Z,24.20
2019-04-25T13:09:32.814Z,24.30
2019-04-25T13:12:14.953Z,24.40
2019-04-25T13:14:56.659Z,24.50
2019-04-25T13:17:37.427Z,24.40
2019-04-25T13:20:18.299Z,24.40
2019-04-25T13:22:58.897Z,24.30
2019-04-25T13:25:39.811Z,24.30
2019-04-25T13:28:23.227Z,24.30
2019-04-25T13:34:01.569Z,24.40
2019-04-25T13:36:44.197Z,24.50
2019-04-25T13:42:30.740Z,24.30
2019-04-25T13:45:12.239Z,24.30
2019-04-25T13:47:53.226Z,24.30
2019-04-25T13:50:34.420Z,24.40
2019-04-25T13:53:15.693Z,24.50
2019-04-25T13:55:56.368Z,24.60
2019-04-25T13:58:37.067Z,24.60
2019-04-25T14:01:18.125Z,24.70
2019-04-25T14:03:58.987Z,24.70
2019-04-25T14:06:39.899Z,24.80
2019-04-25T14:09:21.582Z,24.80
2019-04-25T14:12:04.743Z,24.80
2019-04-25T14:14:45.506Z,24.90
2019-04-25T14:17:45.487Z,25.10
2019-04-25T14:20:45.967Z,25.20
2019-04-25T14:23:27.841Z,25.40
2019-04-25T14:25:56.473Z,25.90
2019-04-25T14:28:44.374Z,26.20
2019-04-25T14:31:42.406Z,26.60
2019-04-25T14:34:21.953Z,26.80
2019-04-25T14:40:10.103Z,27.10
2019-04-25T14:42:51.083Z,27.50
2019-04-25T14:45:43.079Z,27.70
2019-04-25T14:48:14.763Z,27.80
2019-04-25T14:50:55.763Z,27.80
2019-04-25T14:53:36.604Z,27.80
2019-04-25T14:59:10.491Z,28.10
2019-04-25T15:01:51.187Z,28.50
2019-04-25T15:04:31.769Z,28.60
2019-04-25T15:07:12.471Z,28.40
2019-04-25T15:09:53.319Z,28.10
2019-04-25T15:12:33.986Z,27.80
2019-04-25T15:15:14.718Z,27.50
2019-04-25T15:17:55.203Z,27.20
2019-04-25T15:20:36.021Z,26.90
2019-04-25T15:23:16.940Z,26.80
2019-04-25T15:25:57.811Z,26.70
2019-04-25T15:28:38.830Z,26.70
2019-04-25T15:31:19.488Z,26.80
2019-04-25T15:34:02.362Z,26.80
2019-04-25T15:39:55.724Z,26.80
2019-04-25T15:42:41.896Z,26.80
2019-04-25T15:45:27.423Z,26.70
2019-04-25T15:48:08.579Z,26.60
2019-04-25T15:50:49.767Z,26.60
2019-04-25T15:53:30.670Z,26.70
2019-04-25T15:56:10.991Z,27.10
2019-04-25T15:58:51.714Z,27.40
2019-04-25T16:01:32.651Z,27.70
2019-04-25T16:04:13.207Z,27.90
2019-04-25T16:06:54.007Z,27.90
2019-04-25T16:12:54.227Z,27.70
2019-04-25T16:15:34.823Z,27.40
2019-04-25T16:18:15.735Z,27.20
2019-04-25T16:20:56.282Z,27.10
2019-04-25T16:23:36.966Z,27.00
2019-04-25T16:26:18.231Z,26.80
2019-04-25T16:28:58.659Z,26.70
2019-04-25T16:31:39.531Z,26.50
2019-04-25T16:34:20.139Z,26.30
2019-04-25T16:37:00.730Z,26.30
2019-04-25T16:39:42.587Z,26.30
2019-04-25T16:42:23.178Z,26.30
2019-04-25T16:45:03.891Z,26.30
2019-04-25T16:47:44.765Z,26.10
2019-04-25T16:50:25.851Z,26.00
2019-04-25T16:53:06.512Z,25.90
2019-04-25T16:55:46.908Z,25.80
2019-04-25T16:58:28.609Z,25.70
2019-04-25T17:01:11.951Z,25.70
2019-04-25T17:03:53.008Z,25.60
2019-04-25T17:06:33.916Z,25.50
2019-04-25T17:09:14.309Z,25.40
2019-04-25T17:11:56.908Z,25.30
2019-04-25T17:14:42.256Z,25.20
2019-04-25T17:17:41.868Z,25.10
2019-04-25T17:20:24.343Z,25.10
2019-04-25T17:23:05.804Z,25.00
2019-04-25T17:25:46.169Z,25.00
2019-04-25T17:28:27.851Z,25.00
2019-04-25T17:31:27.904Z,24.90
2019-04-25T17:34:12.596Z,24.80
2019-04-25T17:36:55.131Z,24.70
2019-04-25T17:39:40.618Z,24.60
2019-04-25T17:42:21.063Z,24.50
2019-04-25T17:45:01.653Z,24.50
2019-04-25T17:47:52.334Z,24.40
2019-04-25T17:50:24.946Z,24.30
2019-04-25T17:56:10.731Z,24.00
2019-04-25T17:58:51.374Z,24.00
2019-04-25T18:01:32.897Z,24.00
2019-04-25T18:04:14.892Z,23.90
2019-04-25T18:06:55.252Z,23.80
2019-04-25T18:09:36.807Z,23.80
2019-04-25T18:12:17.635Z,23.60
2019-04-25T18:15:00.431Z,23.50
2019-04-25T18:17:42.201Z,23.40
2019-04-25T18:20:27.531Z,23.30
2019-04-25T18:23:27.660Z,23.20
2019-04-25T18:26:13.329Z,23.10
2019-04-25T18:28:55.879Z,23.00
2019-04-25T18:31:36.824Z,22.90
2019-04-25T18:37:31.503Z,22.60
2019-04-25T18:40:31.927Z,22.40
2019-04-25T18:43:14.591Z,22.30
2019-04-25T18:45:57.187Z,22.20
2019-04-25T18:48:38.393Z,22.10
2019-04-25T18:51:18.774Z,22.00
2019-04-25T18:54:01.015Z,21.90
2019-04-25T19:00:00.901Z,21.70
2019-04-25T19:02:46.351Z,21.60
2019-04-25T19:08:32.759Z,21.50
2019-04-25T19:11:13.384Z,21.40
2019-04-25T19:13:54.330Z,21.30
2019-04-25T19:16:35.164Z,21.30
2019-04-25T19:19:15.879Z,21.20
2019-04-25T19:21:56.372Z,21.10
2019-04-25T19:24:37.399Z,21.10
2019-04-25T19:27:23.564Z,21.00
2019-04-25T19:30:00.731Z,20.90
2019-04-25T19:32:41.710Z,20.90
2019-04-25T19:35:23.296Z,20.80
2019-04-25T19:38:04.519Z,20.80
2019-04-25T19:40:46.679Z,20.70
2019-04-25T19:43:29.348Z,20.60
2019-04-25T19:46:10.251Z,20.60
2019-04-25T19:48:51.189Z,20.50
2019-04-25T19:51:31.869Z,20.50
2019-04-25T19:54:12.559Z,20.40
2019-04-25T19:56:53.011Z,20.30
2019-04-25T19:59:34.066Z,20.30
2019-04-25T20:02:19.303Z,20.20
2019-04-25T20:05:01.864Z,20.10
2019-04-25T20:07:46.474Z,20.10
2019-04-25T20:10:28.487Z,20.00
2019-04-25T20:13:09.550Z,20.00
2019-04-25T20:15:50.187Z,20.00
2019-04-25T20:18:30.755Z,20.00
2019-04-25T20:21:11.886Z,19.90
2019-04-25T20:23:52.802Z,19.80
2019-04-25T20:26:33.574Z,19.80
2019-04-25T20:29:14.288Z,19.80
2019-04-25T20:31:55.115Z,19.70
2019-04-25T20:34:36.377Z,19.60
2019-04-25T20:37:04.926Z,19.60
2019-04-25T20:39:53.797Z,19.50
2019-04-25T20:42:42.408Z,19.60
2019-04-25T20:45:30.336Z,19.50
2019-04-25T20:48:18.243Z,19.50
2019-04-25T20:51:06.175Z,19.50
2019-04-25T20:53:54.920Z,19.50
2019-04-25T20:56:43.652Z,19.40
2019-04-25T20:59:31.580Z,19.80
2019-04-25T21:02:19.483Z,19.50
2019-04-25T21:05:07.495Z,19.20
2019-04-25T21:07:55.395Z,19.00
2019-04-25T21:10:43.328Z,19.50
2019-04-25T21:17:01.083Z,19.10
2019-04-25T21:22:44.555Z,18.80
2019-04-25T21:25:32.435Z,18.60
2019-04-25T21:28:20.691Z,18.50
2019-04-25T21:31:07.785Z,18.50
2019-04-25T21:33:56.036Z,18.50
2019-04-25T21:36:39.371Z,18.50
2019-04-25T21:39:39.580Z,18.40
2019-04-25T21:45:25.363Z,18.00
2019-04-25T21:48:06.103Z,17.70
2019-04-25T21:50:46.842Z,17.50
2019-04-25T21:53:27.613Z,17.20
2019-04-25T21:56:08.276Z,17.00
2019-04-25T21:58:49.048Z,16.90
2019-04-25T22:01:34.658Z,16.70
2019-04-25T22:04:15.861Z,16.60
2019-04-25T22:06:56.820Z,16.50
2019-04-25T22:09:37.960Z,16.40
2019-04-25T22:12:21.954Z,16.40
2019-04-25T22:15:04.533Z,16.30
2019-04-25T22:17:45.487Z,16.20
2019-04-25T22:20:26.165Z,16.20
2019-04-25T22:23:06.977Z,16.20
2019-04-25T22:25:48.051Z,16.10
2019-04-25T22:31:27.169Z,16.00
2019-04-25T22:37:15.604Z,15.90
2019-04-25T22:39:56.707Z,15.90
2019-04-25T22:42:37.363Z,15.90
2019-04-25T22:45:17.932Z,15.80
2019-04-25T22:47:58.769Z,15.80
2019-04-25T22:50:39.807Z,15.80
2019-04-25T22:53:22.769Z,15.70
2019-04-25T22:56:03.705Z,15.70
2019-04-25T22:58:45.095Z,15.70
2019-04-25T23:01:45.751Z,15.70
2019-04-25T23:04:46.087Z,15.60
2019-04-25T23:07:27.218Z,15.60
2019-04-25T23:10:08.316Z,15.60
2019-04-25T23:12:49.666Z,15.60
2019-04-25T23:15:31.146Z,15.50
2019-04-25T23:18:12.038Z,15.50
2019-04-25T23:20:52.529Z,15.50
2019-04-25T23:23:34.155Z,15.40
2019-04-25T23:29:10.230Z,15.40
2019-04-25T23:31:51.579Z,15.40
2019-04-25T23:34:32.407Z,15.40
2019-04-25T23:37:13.195Z,15.50
2019-04-25T23:39:54.117Z,15.50
2019-04-25T23:42:34.720Z,15.50
2019-04-25T23:45:16.571Z,15.40
2019-04-25T23:47:57.816Z,15.40
2019-04-25T23:50:38.375Z,15.50
2019-04-25T23:53:19.318Z,15.50
2019-04-25T23:56:00.177Z,15.50
2019-04-25T23:58:40.850Z,15.50
